createdAt,value
2019-04-25T00:00:46.634Z,7.88
2019-04-25T00:03:22.286Z,7.82
2019-04-25T00:05:55.770Z,7.72
2019-04-25T00:08:29.341Z,7.72
2019-04-25T00:11:03.730Z,7.81
2019-04-25T00:13:38.044Z,7.83
2019-04-25T00:16:12.375Z,7.83
2019-04-25T00:18:46.323Z,7.72
2019-04-25T00:21:27.389Z,7.56
2019-04-25T00:24:05.134Z,7.55
2019-04-25T00:26:44.084Z,7.63
2019-04-25T00:29:18.060Z,7.70
2019-04-25T00:31:53.311Z,7.62
2019-04-25T00:34:27.170Z,7.50
2019-04-25T00:37:02.347Z,7.55
2019-04-25T00:39:35.925Z,7.55
2019-04-25T00:42:09.615Z,7.53
2019-04-25T00:44:44.801Z,7.50
2019-04-25T00:47:18.372Z,7.44
2019-04-25T00:49:52.440Z,7.45
2019-04-25T00:52:26.747Z,7.44
2019-04-25T00:55:01.919Z,7.49
2019-04-25T00:57:36.916Z,7.43
2019-04-25T01:00:15.139Z,7.36
2019-04-25T01:02:52.494Z,7.27
2019-04-25T01:05:25.456Z,7.20
2019-04-25T01:07:58.913Z,7.13
2019-04-25T01:10:32.495Z,6.94
2019-04-25T01:13:06.504Z,7.09
2019-04-25T01:15:40.113Z,7.22
2019-04-25T01:18:13.647Z,7.14
2019-04-25T01:20:47.213Z,7.08
2019-04-25T01:23:20.720Z,7.05
2019-04-25T01:25:57.331Z,7.05
2019-04-25T01:28:30.837Z,7.11
2019-04-25T01:31:06.297Z,7.12
2019-04-25T01:33:39.842Z,7.17
2019-04-25T01:36:31.146Z,7.17
2019-04-25T01:39:08.620Z,7.20
2019-04-25T01:41:44.217Z,7.29
2019-04-25T01:44:19.338Z,7.40
2019-04-25T01:46:54.463Z,7.38
2019-04-25T01:49:28.397Z,7.36
2019-04-25T01:52:03.448Z,7.43
2019-04-25T01:54:37.025Z,7.38
2019-04-25T01:57:11.356Z,7.36
2019-04-25T01:59:44.849Z,7.32
2019-04-25T02:02:20.056Z,7.21
2019-04-25T02:04:55.357Z,7.27
2019-04-25T02:07:28.723Z,7.22
2019-04-25T02:10:03.781Z,7.32
2019-04-25T02:12:39.111Z,7.30
2019-04-25T02:15:14.294Z,7.27
2019-04-25T02:17:47.749Z,7.33
2019-04-25T02:20:21.271Z,7.29
2019-04-25T02:22:55.632Z,7.32
2019-04-25T02:25:29.900Z,7.40
2019-04-25T02:28:05.631Z,7.36
2019-04-25T02:30:38.833Z,7.28
2019-04-25T02:33:14.220Z,7.19
2019-04-25T02:35:47.584Z,7.15
2019-04-25T02:38:21.121Z,7.06
2019-04-25T02:40:58.675Z,7.05
2019-04-25T02:43:29.954Z,7.03
2019-04-25T02:46:08.756Z,7.07
2019-04-25T02:48:49.354Z,7.03
2019-04-25T02:51:45.096Z,7.05
2019-04-25T02:54:18.192Z,7.06
2019-04-25T02:56:51.615Z,7.11
2019-04-25T02:59:25.491Z,7.16
2019-04-25T03:01:59.272Z,7.09
2019-04-25T03:04:34.043Z,6.99
2019-04-25T03:07:11.119Z,6.84
2019-04-25T03:09:44.872Z,6.81
2019-04-25T03:12:29.200Z,6.75
2019-04-25T03:14:54.977Z,6.69
2019-04-25T03:17:28.280Z,6.56
2019-04-25T03:20:06.686Z,6.57
2019-04-25T03:22:38.638Z,6.72
2019-04-25T03:25:16.442Z,6.84
2019-04-25T03:27:47.319Z,6.86
2019-04-25T03:30:20.861Z,6.87
2019-04-25T03:32:56.212Z,6.94
2019-04-25T03:35:29.434Z,6.88
2019-04-25T03:38:04.298Z,6.73
2019-04-25T03:40:37.942Z,6.70
2019-04-25T03:43:11.367Z,6.58
2019-04-25T03:45:45.334Z,6.50
2019-04-25T03:48:18.899Z,6.39
2019-04-25T03:50:53.957Z,6.27
2019-04-25T03:53:27.565Z,6.46
2019-04-25T03:56:01.049Z,6.60
2019-04-25T03:58:34.480Z,6.56
2019-04-25T04:01:09.323Z,6.69
2019-04-25T04:03:43.976Z,6.63
2019-04-25T04:06:17.658Z,6.64
2019-04-25T04:08:51.075Z,6.68
2019-04-25T04:11:24.708Z,6.77
2019-04-25T04:13:58.145Z,6.72
2019-04-25T04:16:34.275Z,6.79
2019-04-25T04:19:08.867Z,6.76
2019-04-25T04:21:50.047Z,6.89
2019-04-25T04:24:25.853Z,6.94
2019-04-25T04:27:14.471Z,6.89
2019-04-25T04:29:48.463Z,6.97
2019-04-25T04:32:21.968Z,6.93
2019-04-25T04:34:55.411Z,7.05
2019-04-25T04:37:28.861Z,7.02
2019-04-25T04:40:03.585Z,6.89
2019-04-25T04:42:37.135Z,6.97
2019-04-25T04:45:10.657Z,7.10
2019-04-25T04:47:44.124Z,7.50
2019-04-25T04:50:17.543Z,7.93
2019-04-25T04:52:50.949Z,8.44
2019-04-25T04:55:24.582Z,9.06
2019-04-25T04:57:58.157Z,8.40
2019-04-25T05:00:31.765Z,8.66
2019-04-25T05:03:26.679Z,8.96
2019-04-25T05:06:03.659Z,8.57
2019-04-25T05:08:45.008Z,8.57
2019-04-25T05:11:18.453Z,7.93
2019-04-25T05:13:51.975Z,7.89
2019-04-25T05:16:25.390Z,7.99
2019-04-25T05:18:58.881Z,8.19
2019-04-25T05:21:33.690Z,7.84
2019-04-25T05:24:07.259Z,8.01
2019-04-25T05:26:40.698Z,8.21
2019-04-25T05:29:19.776Z,8.03
2019-04-25T05:31:51.013Z,7.94
2019-04-25T05:34:25.810Z,8.09
2019-04-25T05:36:59.324Z,7.99
2019-04-25T05:39:33.445Z,7.98
2019-04-25T05:42:11.295Z,7.96
2019-04-25T05:44:44.921Z,8.20
2019-04-25T05:47:20.499Z,8.48
2019-04-25T05:49:54.165Z,8.75
2019-04-25T05:52:27.649Z,9.01
2019-04-25T05:55:01.134Z,9.36
2019-04-25T05:57:45.463Z,9.64
2019-04-25T06:00:11.662Z,9.85
2019-04-25T06:02:46.179Z,10.20
2019-04-25T06:08:30.902Z,12.70
2019-04-25T06:11:05.972Z,13.92
2019-04-25T06:13:41.249Z,12.75
2019-04-25T06:16:16.537Z,12.81
2019-04-25T06:19:12.962Z,13.19
2019-04-25T06:21:35.890Z,13.75
2019-04-25T06:24:26.196Z,14.64
2019-04-25T06:27:01.318Z,14.84
2019-04-25T06:29:34.929Z,14.43
2019-04-25T06:32:08.772Z,14.34
2019-04-25T06:34:42.274Z,15.88
2019-04-25T06:37:15.644Z,14.52
2019-04-25T06:39:49.053Z,14.26
2019-04-25T06:42:24.593Z,14.29
2019-04-25T06:45:03.553Z,13.90
2019-04-25T06:47:41.783Z,14.53
2019-04-25T06:50:15.847Z,13.89
2019-04-25T06:52:49.273Z,13.85
2019-04-25T06:55:25.626Z,14.79
2019-04-25T06:58:09.275Z,14.79
2019-04-25T07:00:40.544Z,14.78
2019-04-25T07:03:08.794Z,15.04
2019-04-25T07:05:43.910Z,16.38
2019-04-25T07:08:17.659Z,16.15
2019-04-25T07:10:51.178Z,16.30
2019-04-25T07:13:25.637Z,15.80
2019-04-25T07:16:00.074Z,16.39
2019-04-25T07:18:36.328Z,17.21
2019-04-25T07:21:08.807Z,17.19
2019-04-25T07:23:43.222Z,16.37
2019-04-25T07:26:19.229Z,16.62
2019-04-25T07:29:00.471Z,15.19
2019-04-25T07:31:38.671Z,15.50
2019-04-25T07:34:13.831Z,16.77
2019-04-25T07:36:48.305Z,16.78
2019-04-25T07:39:23.678Z,16.84
2019-04-25T07:41:57.079Z,16.04
2019-04-25T07:44:45.071Z,16.25
2019-04-25T07:47:06.147Z,17.60
2019-04-25T07:49:39.614Z,18.74
2019-04-25T07:52:13.640Z,18.97
2019-04-25T07:54:47.107Z,18.80
2019-04-25T07:57:20.534Z,18.69
2019-04-25T07:59:54.109Z,18.39
2019-04-25T08:02:28.138Z,18.46
2019-04-25T08:05:04.287Z,17.81
2019-04-25T08:07:38.012Z,17.95
2019-04-25T08:10:14.021Z,19.36
2019-04-25T08:12:47.583Z,18.40
2019-04-25T08:15:35.043Z,18.70
2019-04-25T08:18:10.032Z,18.20
2019-04-25T08:20:44.010Z,18.11
2019-04-25T08:23:21.662Z,17.09
2019-04-25T08:25:55.307Z,17.03
2019-04-25T08:28:29.602Z,17.13
2019-04-25T08:31:04.067Z,17.72
2019-04-25T08:33:37.758Z,17.70
2019-04-25T08:36:11.268Z,16.71
2019-04-25T08:38:44.888Z,17.17
2019-04-25T08:41:18.402Z,17.35
2019-04-25T08:43:52.091Z,17.90
2019-04-25T08:46:25.533Z,17.77
2019-04-25T08:49:06.722Z,17.30
2019-04-25T08:51:44.733Z,17.13
2019-04-25T08:54:23.607Z,17.51
2019-04-25T08:56:58.985Z,17.37
2019-04-25T08:59:44.742Z,17.58
2019-04-25T09:02:36.022Z,17.12
2019-04-25T09:05:20.741Z,17.00
2019-04-25T09:07:54.484Z,17.55
2019-04-25T09:10:27.945Z,17.73
2019-04-25T09:13:01.386Z,18.45
2019-04-25T09:15:36.630Z,18.07
2019-04-25T09:18:10.413Z,18.58
2019-04-25T09:20:46.497Z,18.01
2019-04-25T09:23:19.243Z,18.58
2019-04-25T09:25:54.389Z,18.79
2019-04-25T09:28:28.117Z,18.25
2019-04-25T09:31:01.593Z,18.28
2019-04-25T09:33:36.033Z,18.74
2019-04-25T09:36:09.954Z,19.34
2019-04-25T09:38:47.964Z,18.85
2019-04-25T09:41:18.702Z,18.59
2019-04-25T09:43:54.970Z,18.50
2019-04-25T09:46:30.337Z,18.13
2019-04-25T09:49:05.421Z,18.48
2019-04-25T09:51:40.599Z,18.56
2019-04-25T09:54:15.807Z,18.74
2019-04-25T09:56:50.831Z,18.54
2019-04-25T09:59:27.872Z,18.36
2019-04-25T10:02:00.113Z,18.27
2019-04-25T10:04:34.680Z,18.53
2019-04-25T10:07:26.761Z,18.90
2019-04-25T10:10:00.349Z,18.69
2019-04-25T10:15:52.913Z,18.53
2019-04-25T10:22:03.367Z,18.89
2019-04-25T10:24:37.431Z,19.34
2019-04-25T10:27:11.938Z,19.59
2019-04-25T10:30:39.510Z,19.55
2019-04-25T10:34:44.634Z,19.77
2019-04-25T10:35:52.549Z,19.43
2019-04-25T10:38:26.281Z,19.40
2019-04-25T10:41:04.252Z,19.97
2019-04-25T10:43:39.508Z,19.58
2019-04-25T10:46:14.280Z,19.61
2019-04-25T10:48:50.628Z,19.77
2019-04-25T10:51:24.324Z,19.55
2019-04-25T10:53:57.908Z,20.02
2019-04-25T10:56:33.372Z,20.30
2019-04-25T10:59:07.144Z,19.58
2019-04-25T11:01:41.228Z,19.64
2019-04-25T11:04:16.486Z,19.80
2019-04-25T11:06:50.182Z,19.82
2019-04-25T11:09:25.259Z,20.06
2019-04-25T11:11:58.815Z,20.11
2019-04-25T11:14:34.027Z,20.46
2019-04-25T11:17:07.626Z,20.98
2019-04-25T11:19:41.236Z,20.41
2019-04-25T11:22:15.578Z,20.25
2019-04-25T11:24:49.504Z,20.99
2019-04-25T11:27:23.960Z,20.59
2019-04-25T11:30:08.467Z,21.38
2019-04-25T11:32:33.938Z,21.33
2019-04-25T11:35:07.847Z,21.59
2019-04-25T11:37:43.104Z,22.07
2019-04-25T11:40:19.885Z,21.38
2019-04-25T11:42:54.575Z,21.30
2019-04-25T11:45:28.276Z,21.56
2019-04-25T11:48:02.015Z,21.88
2019-04-25T11:50:37.023Z,22.29
2019-04-25T11:53:10.666Z,22.28
2019-04-25T11:55:47.706Z,22.93
2019-04-25T11:58:19.698Z,22.64
2019-04-25T12:00:54.127Z,21.34
2019-04-25T12:03:28.487Z,22.02
2019-04-25T12:06:01.899Z,22.84
2019-04-25T12:08:35.413Z,23.04
2019-04-25T12:11:08.983Z,22.02
2019-04-25T12:13:45.988Z,22.49
2019-04-25T12:16:19.102Z,22.44
2019-04-25T12:18:55.329Z,23.30
2019-04-25T12:21:27.936Z,23.82
2019-04-25T12:24:03.692Z,23.64
2019-04-25T12:26:36.805Z,23.27
2019-04-25T12:29:10.395Z,24.02
2019-04-25T12:31:45.524Z,24.09
2019-04-25T12:34:19.022Z,24.31
2019-04-25T12:36:54.332Z,24.34
2019-04-25T12:39:28.396Z,24.09
2019-04-25T12:42:02.010Z,24.00
2019-04-25T12:44:39.587Z,24.39
2019-04-25T12:47:14.662Z,24.85
2019-04-25T12:49:48.669Z,24.87
2019-04-25T12:52:24.424Z,24.41
2019-04-25T12:54:58.170Z,24.80
2019-04-25T12:57:32.077Z,24.69
2019-04-25T13:00:06.373Z,25.09
2019-04-25T13:02:39.801Z,25.06
2019-04-25T13:05:14.188Z,25.18
2019-04-25T13:07:47.779Z,25.24
2019-04-25T13:10:23.455Z,25.15
2019-04-25T13:12:56.712Z,24.41
2019-04-25T13:15:33.803Z,23.77
2019-04-25T13:18:07.217Z,24.16
2019-04-25T13:20:40.630Z,24.07
2019-04-25T13:23:14.459Z,24.16
2019-04-25T13:25:47.931Z,24.93
2019-04-25T13:28:23.283Z,24.59
2019-04-25T13:31:16.530Z,24.52
2019-04-25T13:34:09.642Z,24.57
2019-04-25T13:36:44.332Z,24.33
2019-04-25T13:39:19.141Z,24.75
2019-04-25T13:41:54.299Z,25.29
2019-04-25T13:44:27.973Z,25.54
2019-04-25T13:47:12.137Z,25.37
2019-04-25T13:49:45.496Z,25.42
2019-04-25T13:52:19.056Z,25.82
2019-04-25T13:54:53.767Z,25.77
2019-04-25T13:57:27.861Z,25.41
2019-04-25T14:00:01.524Z,26.19
2019-04-25T14:02:34.974Z,26.11
2019-04-25T14:05:08.756Z,26.08
2019-04-25T14:07:42.758Z,26.28
2019-04-25T14:10:16.393Z,26.15
2019-04-25T14:12:49.803Z,26.10
2019-04-25T14:15:25.331Z,25.82
2019-04-25T14:18:06.223Z,25.73
2019-04-25T14:20:44.029Z,25.97
2019-04-25T14:23:17.553Z,26.08
2019-04-25T14:25:50.997Z,25.80
2019-04-25T14:28:25.527Z,25.96
2019-04-25T14:31:00.013Z,25.94
2019-04-25T14:33:35.270Z,26.15
2019-04-25T14:36:09.000Z,26.58
2019-04-25T14:38:42.430Z,26.62
2019-04-25T14:41:16.000Z,26.65
2019-04-25T14:43:49.439Z,26.15
2019-04-25T14:46:23.001Z,26.16
2019-04-25T14:48:56.551Z,26.25
2019-04-25T14:51:30.652Z,26.55
2019-04-25T14:54:05.817Z,26.51
2019-04-25T14:56:49.757Z,26.54
2019-04-25T14:59:24.485Z,26.42
2019-04-25T15:01:59.546Z,26.41
2019-04-25T15:04:33.188Z,26.58
2019-04-25T15:07:06.642Z,26.52
2019-04-25T15:09:40.151Z,26.65
2019-04-25T15:12:14.353Z,26.66
2019-04-25T15:14:47.873Z,26.33
2019-04-25T15:17:21.433Z,26.23
2019-04-25T15:19:54.917Z,26.09
2019-04-25T15:22:28.354Z,25.91
2019-04-25T15:25:01.787Z,25.94
2019-04-25T15:27:35.334Z,25.95
2019-04-25T15:30:10.550Z,25.94
2019-04-25T15:32:44.227Z,25.85
2019-04-25T15:35:19.315Z,25.90
2019-04-25T15:37:56.856Z,25.96
2019-04-25T15:40:31.946Z,25.99
2019-04-25T15:43:12.503Z,26.22
2019-04-25T15:45:47.682Z,26.46
2019-04-25T15:48:21.340Z,26.79
2019-04-25T15:50:55.590Z,26.73
2019-04-25T15:53:29.336Z,26.80
2019-04-25T15:56:02.909Z,26.71
2019-04-25T15:58:37.369Z,26.86
2019-04-25T16:01:11.465Z,27.91
2019-04-25T16:03:44.981Z,27.31
2019-04-25T16:06:18.614Z,27.19
2019-04-25T16:08:52.365Z,27.16
2019-04-25T16:11:26.599Z,26.57
2019-04-25T16:14:00.420Z,26.29
2019-04-25T16:16:33.938Z,26.11
2019-04-25T16:19:07.623Z,26.15
2019-04-25T16:21:42.234Z,25.76
2019-04-25T16:24:15.848Z,25.66
2019-04-25T16:26:49.331Z,25.68
2019-04-25T16:29:23.283Z,25.63
2019-04-25T16:31:58.424Z,25.53
2019-04-25T16:34:31.749Z,25.38
2019-04-25T16:37:05.361Z,25.37
2019-04-25T16:39:40.507Z,25.55
2019-04-25T16:42:14.115Z,26.07
2019-04-25T16:44:50.896Z,25.42
2019-04-25T16:47:25.966Z,26.83
2019-04-25T16:49:59.347Z,25.92
2019-04-25T16:52:33.836Z,25.74
2019-04-25T16:55:08.569Z,27.02
2019-04-25T16:57:42.056Z,27.58
2019-04-25T17:00:20.315Z,27.81
2019-04-25T17:03:02.274Z,27.07
2019-04-25T17:05:35.729Z,27.19
2019-04-25T17:08:09.326Z,24.03
2019-04-25T17:10:42.750Z,23.68
2019-04-25T17:13:16.688Z,22.32
2019-04-25T17:16:03.711Z,21.54
2019-04-25T17:18:38.814Z,20.95
2019-04-25T17:21:12.294Z,20.65
2019-04-25T17:23:45.699Z,20.79
2019-04-25T17:26:20.021Z,20.32
2019-04-25T17:28:55.137Z,20.05
2019-04-25T17:31:30.272Z,19.67
2019-04-25T17:34:05.472Z,19.65
2019-04-25T17:36:41.467Z,19.41
2019-04-25T17:39:26.967Z,19.22
2019-04-25T17:42:01.459Z,19.14
2019-04-25T17:44:36.159Z,19.05
2019-04-25T17:47:09.771Z,18.65
2019-04-25T17:49:44.374Z,18.61
2019-04-25T17:52:17.968Z,18.42
2019-04-25T17:54:51.526Z,18.34
2019-04-25T17:57:25.243Z,17.95
2019-04-25T17:59:58.854Z,17.80
2019-04-25T18:02:33.525Z,17.61
2019-04-25T18:05:07.536Z,17.38
2019-04-25T18:07:41.791Z,17.20
2019-04-25T18:10:15.852Z,17.20
2019-04-25T18:12:49.345Z,17.24
2019-04-25T18:15:24.426Z,17.04
2019-04-25T18:17:58.027Z,16.87
2019-04-25T18:20:36.664Z,16.69
2019-04-25T18:23:11.924Z,16.61
2019-04-25T18:26:02.185Z,16.38
2019-04-25T18:28:37.458Z,16.42
2019-04-25T18:31:11.063Z,16.27
2019-04-25T18:33:44.611Z,16.14
2019-04-25T18:36:28.709Z,16.03
2019-04-25T18:39:03.815Z,16.04
2019-04-25T18:41:46.016Z,15.95
2019-04-25T18:44:19.723Z,15.85
2019-04-25T18:46:53.393Z,15.72
2019-04-25T18:49:26.905Z,15.53
2019-04-25T18:52:01.978Z,15.50
2019-04-25T18:54:45.704Z,15.42
2019-04-25T18:57:32.657Z,15.41
2019-04-25T19:00:24.927Z,15.25
2019-04-25T19:03:09.277Z,15.20
2019-04-25T19:05:54.496Z,15.08
2019-04-25T19:08:29.811Z,15.07
2019-04-25T19:11:04.316Z,15.00
2019-04-25T19:13:47.388Z,14.98
2019-04-25T19:16:31.947Z,14.91
2019-04-25T19:19:06.775Z,14.82
2019-04-25T19:21:41.562Z,14.73
2019-04-25T19:24:31.176Z,14.72
2019-04-25T19:27:05.629Z,14.58
2019-04-25T19:29:40.341Z,14.50
2019-04-25T19:32:14.096Z,14.46
2019-04-25T19:34:48.740Z,14.37
2019-04-25T19:37:22.538Z,14.39
2019-04-25T19:40:06.961Z,14.33
2019-04-25T19:42:42.311Z,14.26
2019-04-25T19:45:16.103Z,14.25
2019-04-25T19:47:49.781Z,14.22
2019-04-25T19:50:23.401Z,14.10
2019-04-25T19:52:57.072Z,14.11
2019-04-25T19:55:30.795Z,14.04
2019-04-25T19:58:04.724Z,14.00
2019-04-25T20:00:38.367Z,13.92
2019-04-25T20:03:13.748Z,13.86
2019-04-25T20:06:04.321Z,13.84
2019-04-25T20:08:48.738Z,13.83
2019-04-25T20:11:26.992Z,13.78
2019-04-25T20:14:00.712Z,13.78
2019-04-25T20:16:36.007Z,13.75
2019-04-25T20:19:09.671Z,13.67
2019-04-25T20:21:44.447Z,13.47
2019-04-25T20:24:18.259Z,13.41
2019-04-25T20:26:52.589Z,13.20
2019-04-25T20:29:26.218Z,13.10
2019-04-25T20:31:59.769Z,13.20
2019-04-25T20:34:33.247Z,13.06
2019-04-25T20:37:06.850Z,12.87
2019-04-25T20:39:40.447Z,12.78
2019-04-25T20:42:13.975Z,12.99
2019-04-25T20:44:47.727Z,13.11
2019-04-25T20:47:21.516Z,13.08
2019-04-25T20:49:55.352Z,12.98
2019-04-25T20:52:28.910Z,12.84
2019-04-25T20:55:02.455Z,12.75
2019-04-25T20:57:35.969Z,12.72
2019-04-25T21:00:09.796Z,12.65
2019-04-25T21:02:43.408Z,12.45
2019-04-25T21:05:16.926Z,12.43
2019-04-25T21:07:51.251Z,12.37
2019-04-25T21:10:24.833Z,12.26
2019-04-25T21:12:58.433Z,12.17
2019-04-25T21:15:45.995Z,12.05
2019-04-25T21:18:36.459Z,12.10
2019-04-25T21:21:10.056Z,11.98
2019-04-25T21:23:43.592Z,12.05
2019-04-25T21:26:17.170Z,12.03
2019-04-25T21:28:51.013Z,12.00
2019-04-25T21:31:25.649Z,11.99
2019-04-25T21:34:00.191Z,11.90
2019-04-25T21:36:34.112Z,11.82
2019-04-25T21:39:09.830Z,11.73
2019-04-25T21:41:51.418Z,11.67
2019-04-25T21:44:25.882Z,11.63
2019-04-25T21:46:59.642Z,11.65
2019-04-25T21:49:34.275Z,11.61
2019-04-25T21:52:07.945Z,11.36
2019-04-25T21:54:41.895Z,11.25
2019-04-25T21:57:15.705Z,11.45
2019-04-25T22:00:00.520Z,11.51
2019-04-25T22:02:24.936Z,11.51
2019-04-25T22:04:58.815Z,11.33
2019-04-25T22:07:32.765Z,11.28
2019-04-25T22:10:08.232Z,11.30
2019-04-25T22:12:41.762Z,11.42
2019-04-25T22:15:15.889Z,11.41
2019-04-25T22:17:49.519Z,11.43
2019-04-25T22:20:23.149Z,11.33
2019-04-25T22:22:57.032Z,11.23
2019-04-25T22:25:31.713Z,11.12
2019-04-25T22:28:05.670Z,11.02
2019-04-25T22:30:40.465Z,10.96
2019-04-25T22:33:15.603Z,10.89
2019-04-25T22:35:53.658Z,10.70
2019-04-25T22:38:27.557Z,10.64
2019-04-25T22:41:01.294Z,10.69
2019-04-25T22:43:36.985Z,10.82
2019-04-25T22:46:10.705Z,10.91
2019-04-25T22:48:50.125Z,10.81
2019-04-25T22:51:23.714Z,10.83
2019-04-25T22:53:57.603Z,10.82
2019-04-25T22:56:31.119Z,10.79
2019-04-25T22:59:04.923Z,10.61
2019-04-25T23:01:48.586Z,10.40
2019-04-25T23:04:40.174Z,10.28
2019-04-25T23:07:14.665Z,10.29
2019-04-25T23:09:49.587Z,10.30
2019-04-25T23:12:23.393Z,10.23
2019-04-25T23:14:56.893Z,10.26
2019-04-25T23:17:30.477Z,10.16
2019-04-25T23:20:05.726Z,10.03
2019-04-25T23:22:39.449Z,9.89
2019-04-25T23:25:14.813Z,9.80
2019-04-25T23:27:50.075Z,9.92
2019-04-25T23:30:28.141Z,10.06
2019-04-25T23:33:01.701Z,10.11
2019-04-25T23:35:35.759Z,10.10
2019-04-25T23:38:12.142Z,10.05
2019-04-25T23:40:44.920Z,9.79
2019-04-25T23:43:18.932Z,9.56
2019-04-25T23:45:52.434Z,9.39
2019-04-25T23:48:26.179Z,9.36
2019-04-25T23:50:59.654Z,9.40
2019-04-25T23:53:33.293Z,9.60
2019-04-25T23:56:07.732Z,9.55
2019-04-25T23:58:42.148Z,9.55
